KLGA/LGA METAR and TAF weather

Enter ICAO airport designator
Station Type Date Time Source
KLGA METAR 2020/07/15 01:51 UTC NOAA

KLGA 150151Z 06010KT 10SM SCT080 SCT110 25/17 A3004 RMK AO2 WSHFT 0047 SLP171 T02500172


Station Type Date Time Source
KLGA Decoded METAR 2020/07/15 01:51 UTC NOAA

NEW YORK LA GUARDIA AIRPORT , NY, United States (KLGA) 40-47N 73-53W 11M
Jul 14, 2020 - 09:51 PM EDT / 2020.07.15 0151 UTC
Wind: from the ENE (060 degrees) at 12 MPH (10 KT):0
Visibility: 10 mile(s):0
Sky conditions: partly cloudy
Temperature: 77.0 F (25.0 C)
Dew Point: 63.0 F (17.2 C)
Relative Humidity: 61%
Pressure (altimeter): 30.04 in. Hg (1017 hPa)
ob: KLGA 150151Z 06010KT 10SM SCT080 SCT110 25/17 A3004 RMK AO2 WSHFT 0047 SLP171 T02500172
cycle: 2

Station Type Date Time Source
KLGA TAF 2020/07/14 21:40 UTC NOAA

TAF
AMD KLGA 142037Z 1421/1524 32010KT P6SM SCT070
FM150200 03007KT P6SM SCT070
FM151200 06007KT P6SM FEW025 BKN035
FM151600 11007KT P6SM FEW025 BKN050
FM152000 15010KT P6SM SCT050 SCT250

Example: see airport list